Time;durP1;ratioP1;P1;durP2;ratioP2;P2;SDS_P1;SDS_P2;PMS_P1;PMS_P2;Temp;Humidity;BMP_temperature;BMP_pressure;BME280_temperature;BME280_humidity;BME280_pressure;Samples;Min_cycle;Max_cycle;Signal;HPM_P1;HPM_P2
2022/08/08 00:01:06;;;;;;;13.50;8.80;;;;;;;;;;5073541;28;20021;-81
2022/08/08 00:03:32;;;;;;;11.80;8.88;;;;;;;;;;5093736;28;20042;-79
2022/08/08 00:06:11;;;;;;;10.32;9.23;;;;;;;;;;5123824;27;20052;-81
2022/08/08 00:08:50;;;;;;;14.52;10.07;;;;;;;;;;5126563;27;20049;-79
2022/08/08 00:11:21;;;;;;;11.70;9.30;;;;;;;;;;5126234;27;20364;-78
2022/08/08 00:14:05;;;;;;;13.98;9.65;;;;;;;;;;5126211;27;20024;-79
2022/08/08 00:16:37;;;;;;;15.05;10.35;;;;;;;;;;5073788;28;20024;-79
2022/08/08 00:19:12;;;;;;;11.88;9.32;;;;;;;;;;5091148;28;20019;-79
2022/08/08 00:21:41;;;;;;;12.23;10.93;;;;;;;;;;5095207;28;20047;-80
2022/08/08 00:24:16;;;;;;;19.40;15.43;;;;;;;;;;5093412;28;20044;-79
2022/08/08 00:26:44;;;;;;;14.93;13.15;;;;;;;;;;5089724;28;20042;-80
2022/08/08 00:29:36;;;;;;;18.55;16.63;;;;;;;;;;5122190;27;20020;-79
2022/08/08 00:32:11;;;;;;;17.23;15.45;;;;;;;;;;5088518;28;20489;-80
2022/08/08 00:35:12;;;;;;;10.75;9.65;;;;;;;;;;5092884;28;20036;-79
2022/08/08 00:37:57;;;;;;;16.17;9.07;;;;;;;;;;5092986;28;20103;-79
2022/08/08 00:40:29;;;;;;;11.55;8.68;;;;;;;;;;5090569;28;20020;-80
2022/08/08 00:43:04;;;;;;;10.75;9.05;;;;;;;;;;5117382;27;20081;-78
2022/08/08 00:45:30;;;;;;;13.32;9.13;;;;;;;;;;5115662;27;20111;-83
2022/08/08 00:47:59;;;;;;;20.60;16.02;;;;;;;;;;5091554;28;20107;-82
2022/08/08 00:50:44;;;;;;;37.75;30.50;;;;;;;;;;5126255;27;20496;-84
2022/08/08 00:53:17;;;;;;;16.58;14.88;;;;;;;;;;5092204;28;20049;-84
2022/08/08 00:55:46;;;;;;;12.75;11.55;;;;;;;;;;5076962;28;20021;-79
2022/08/08 00:58:22;;;;;;;12.10;9.82;;;;;;;;;;5091926;28;20027;-80
2022/08/08 01:00:48;;;;;;;10.93;9.65;;;;;;;;;;5091003;28;20031;-79
2022/08/08 01:03:33;;;;;;;10.45;8.95;;;;;;;;;;5092807;28;20016;-77
2022/08/08 01:05:59;;;;;;;12.35;8.90;;;;;;;;;;5092090;28;20016;-79
2022/08/08 01:08:43;;;;;;;11.77;8.90;;;;;;;;;;5091681;28;20020;-80
2022/08/08 01:11:28;;;;;;;15.35;8.80;;;;;;;;;;5091182;28;20020;-84
2022/08/08 01:14:00;;;;;;;11.00;9.88;;;;;;;;;;5091795;28;20094;-82
2022/08/08 01:16:45;;;;;;;12.52;11.23;;;;;;;;;;5072797;28;20024;-81
2022/08/08 01:19:16;;;;;;;13.43;12.00;;;;;;;;;;5090984;28;20016;-82
2022/08/08 01:21:58;;;;;;;13.60;11.93;;;;;;;;;;5071624;28;20048;-81
2022/08/08 01:24:27;;;;;;;16.55;11.73;;;;;;;;;;5072429;28;20025;-82
2022/08/08 01:27:06;;;;;;;14.45;11.05;;;;;;;;;;5092120;28;20479;-81
2022/08/08 01:29:51;;;;;;;14.90;12.20;;;;;;;;;;5095193;28;20041;-81
2022/08/08 01:32:23;;;;;;;14.00;12.50;;;;;;;;;;5090789;28;20889;-80
2022/08/08 01:35:05;;;;;;;12.95;11.65;;;;;;;;;;5120138;27;20128;-77
2022/08/08 01:37:49;;;;;;;18.08;12.77;;;;;;;;;;5098102;28;20016;-79
2022/08/08 01:40:21;;;;;;;22.27;12.85;;;;;;;;;;5090151;28;20028;-78
2022/08/08 01:42:47;;;;;;;18.25;13.43;;;;;;;;;;5073995;28;20025;-81
2022/08/08 01:45:16;;;;;;;16.90;14.02;;;;;;;;;;5124238;27;20023;-78
2022/08/08 01:48:01;;;;;;;20.98;14.45;;;;;;;;;;5074840;28;20052;-79
2022/08/08 01:50:32;;;;;;;17.20;14.98;;;;;;;;;;5071520;28;20016;-78
2022/08/08 01:53:13;;;;;;;18.33;15.38;;;;;;;;;;5090174;28;20061;-79
2022/08/08 01:55:39;;;;;;;18.92;14.65;;;;;;;;;;5091283;28;20023;-78
2022/08/08 01:58:14;;;;;;;19.73;14.60;;;;;;;;;;5090368;28;20016;-79
2022/08/08 02:00:49;;;;;;;14.55;13.05;;;;;;;;;;5090143;28;20081;-77
2022/08/08 02:03:30;;;;;;;15.35;11.93;;;;;;;;;;5124325;27;20028;-81
2022/08/08 02:06:08;;;;;;;14.77;12.95;;;;;;;;;;5090964;28;20028;-79
2022/08/08 02:08:34;;;;;;;17.75;13.25;;;;;;;;;;5124247;27;20019;-79
2022/08/08 02:11:12;;;;;;;18.75;14.48;;;;;;;;;;5123781;27;20016;-76
2022/08/08 02:13:48;;;;;;;39.90;27.75;;;;;;;;;;5120568;27;20064;-78
2022/08/08 02:16:29;;;;;;;42.45;30.88;;;;;;;;;;5090832;28;20024;-77
2022/08/08 02:19:02;;;;;;;32.15;27.80;;;;;;;;;;5088179;28;20024;-79
2022/08/08 02:24:24;;;;;;;46.28;35.13;;;;;;;;;;5080735;28;19989;-77
2022/08/08 02:27:06;;;;;;;38.60;34.13;;;;;;;;;;5088985;28;20016;-76
2022/08/08 02:30:10;;;;;;;31.67;24.92;;;;;;;;;;5087024;28;20024;-77
2022/08/08 02:32:39;;;;;;;30.10;25.95;;;;;;;;;;5046610;28;20029;-79
2022/08/08 02:35:08;;;;;;;29.70;26.52;;;;;;;;;;5030703;28;20032;-78
2022/08/08 02:37:43;;;;;;;31.45;28.08;;;;;;;;;;5059393;28;20035;-77
2022/08/08 02:40:18;;;;;;;32.10;26.42;;;;;;;;;;5088689;28;20035;-77
2022/08/08 02:42:44;;;;;;;31.95;28.50;;;;;;;;;;5086532;28;20012;-76
2022/08/08 02:45:29;;;;;;;34.80;29.80;;;;;;;;;;5085590;28;20024;-78
2022/08/08 02:48:10;;;;;;;36.40;31.50;;;;;;;;;;5087520;28;20012;-77
2022/08/08 02:50:47;;;;;;;33.45;28.70;;;;;;;;;;5088106;28;20035;-79
2022/08/08 02:53:26;;;;;;;29.77;26.08;;;;;;;;;;5091332;28;20481;-75
2022/08/08 02:55:52;;;;;;;30.75;27.33;;;;;;;;;;5121562;27;20063;-78
2022/08/08 02:58:38;;;;;;;28.13;25.17;;;;;;;;;;5093092;28;20070;-78
2022/08/08 03:01:23;;;;;;;31.75;26.08;;;;;;;;;;5087691;28;20485;-79
2022/08/08 03:03:52;;;;;;;33.60;27.23;;;;;;;;;;5092569;28;20023;-77
2022/08/08 03:06:36;;;;;;;37.83;28.35;;;;;;;;;;5121438;27;20031;-79
2022/08/08 03:09:05;;;;;;;32.70;26.60;;;;;;;;;;5114711;27;20021;-78
2022/08/08 03:11:41;;;;;;;33.00;26.77;;;;;;;;;;5091483;28;20047;-77
2022/08/08 03:14:13;;;;;;;34.33;29.30;;;;;;;;;;5090470;28;20035;-79
2022/08/08 03:16:42;;;;;;;31.45;25.50;;;;;;;;;;5118416;27;20070;-77
2022/08/08 03:19:17;;;;;;;29.00;26.02;;;;;;;;;;5130042;27;20078;-78
2022/08/08 03:21:43;;;;;;;32.85;29.35;;;;;;;;;;5094082;28;20426;-76
2022/08/08 03:24:09;;;;;;;39.42;30.17;;;;;;;;;;5090965;28;20102;-79
2022/08/08 03:26:39;;;;;;;32.17;28.55;;;;;;;;;;5088358;28;20013;-78
2022/08/08 03:29:07;;;;;;;31.45;25.35;;;;;;;;;;5112850;27;20482;-78
2022/08/08 03:34:18;;;;;;;35.33;27.83;;;;;;;;;;5092802;28;20509;-77
2022/08/08 03:36:44;;;;;;;33.60;27.67;;;;;;;;;;5122501;27;20109;-79
2022/08/08 03:39:11;;;;;;;33.90;28.77;;;;;;;;;;5093993;28;20016;-78
2022/08/08 03:41:37;;;;;;;28.88;25.80;;;;;;;;;;5091033;28;20019;-78
2022/08/08 03:44:03;;;;;;;26.00;22.52;;;;;;;;;;5122743;27;20066;-76
2022/08/08 03:46:29;;;;;;;30.92;24.60;;;;;;;;;;5114852;27;20021;-77
2022/08/08 03:48:56;;;;;;;28.52;24.83;;;;;;;;;;5078358;28;20415;-76
2022/08/08 03:51:23;;;;;;;26.95;24.13;;;;;;;;;;5093420;28;20120;-77
2022/08/08 03:53:50;;;;;;;24.50;20.90;;;;;;;;;;5092521;28;20483;-76
2022/08/08 03:56:16;;;;;;;24.85;21.85;;;;;;;;;;5092168;28;20111;-76
2022/08/08 03:58:47;;;;;;;27.50;23.95;;;;;;;;;;5085269;28;20027;-76
2022/08/08 04:01:13;;;;;;;26.70;23.90;;;;;;;;;;5082101;28;20456;-77
2022/08/08 04:03:39;;;;;;;26.25;23.45;;;;;;;;;;5091788;28;20020;-77
2022/08/08 04:06:06;;;;;;;27.95;24.50;;;;;;;;;;5093192;28;20435;-75
2022/08/08 04:08:35;;;;;;;25.42;22.23;;;;;;;;;;5123365;27;20028;-76
2022/08/08 04:11:02;;;;;;;25.60;21.15;;;;;;;;;;5092323;28;20020;-76
2022/08/08 04:13:28;;;;;;;24.05;21.55;;;;;;;;;;5089444;28;20064;-76
2022/08/08 04:15:54;;;;;;;24.75;22.13;;;;;;;;;;5090342;28;20016;-76
2022/08/08 04:18:20;;;;;;;27.17;23.20;;;;;;;;;;5090161;28;20031;-77
2022/08/08 04:20:46;;;;;;;24.13;21.63;;;;;;;;;;5092805;28;20086;-78
2022/08/08 04:23:12;;;;;;;26.13;23.48;;;;;;;;;;5123038;27;20362;-76
2022/08/08 04:25:38;;;;;;;26.70;24.17;;;;;;;;;;5114231;27;20028;-77
2022/08/08 04:28:04;;;;;;;27.70;24.15;;;;;;;;;;5085423;28;20119;-78
2022/08/08 04:30:30;;;;;;;22.92;20.63;;;;;;;;;;5089206;28;20476;-77
2022/08/08 04:32:56;;;;;;;26.35;22.90;;;;;;;;;;5090655;28;20102;-77
2022/08/08 04:35:23;;;;;;;24.60;21.85;;;;;;;;;;5089910;28;20132;-77
2022/08/08 04:37:49;;;;;;;25.08;22.38;;;;;;;;;;5087725;28;20081;-77
2022/08/08 04:40:15;;;;;;;31.92;24.55;;;;;;;;;;5082998;28;20029;-76
2022/08/08 04:42:42;;;;;;;24.98;22.25;;;;;;;;;;5088508;28;20136;-76
2022/08/08 04:45:08;;;;;;;23.63;21.25;;;;;;;;;;5090018;28;20471;-75
2022/08/08 04:47:34;;;;;;;24.15;21.85;;;;;;;;;;5089238;28;20024;-74
2022/08/08 04:50:00;;;;;;;27.25;23.73;;;;;;;;;;5088520;28;20024;-77
2022/08/08 04:52:26;;;;;;;26.77;22.20;;;;;;;;;;5091400;28;20394;-82
2022/08/08 04:54:52;;;;;;;25.25;20.73;;;;;;;;;;5090997;28;20122;-78
2022/08/08 04:57:18;;;;;;;28.45;20.38;;;;;;;;;;5129250;27;20028;-80
2022/08/08 04:59:44;;;;;;;29.77;24.42;;;;;;;;;;5089330;28;20069;-80
2022/08/08 05:02:11;;;;;;;27.33;20.77;;;;;;;;;;5091464;28;20507;-82
2022/08/08 05:04:37;;;;;;;22.20;19.70;;;;;;;;;;5092327;28;20016;-82
2022/08/08 05:07:03;;;;;;;19.15;17.10;;;;;;;;;;5125548;27;20027;-79
2022/08/08 05:09:29;;;;;;;22.55;20.35;;;;;;;;;;5124830;27;20031;-79
2022/08/08 05:11:55;;;;;;;22.65;19.63;;;;;;;;;;5116910;27;20057;-78
2022/08/08 05:14:21;;;;;;;28.52;21.88;;;;;;;;;;5118642;27;20036;-79
2022/08/08 05:16:47;;;;;;;22.75;20.38;;;;;;;;;;5125039;27;20020;-80
2022/08/08 05:19:13;;;;;;;22.42;18.35;;;;;;;;;;5081295;28;20101;-80
2022/08/08 05:21:43;;;;;;;20.08;18.05;;;;;;;;;;5122997;27;20040;-80
2022/08/08 05:24:09;;;;;;;20.60;18.40;;;;;;;;;;5125333;27;20026;-80
2022/08/08 05:26:36;;;;;;;21.45;16.58;;;;;;;;;;5128101;27;20107;-77
2022/08/08 05:29:06;;;;;;;22.98;17.77;;;;;;;;;;5090950;28;20760;-80
2022/08/08 05:31:32;;;;;;;21.10;18.90;;;;;;;;;;5096148;28;20022;-78
2022/08/08 05:33:58;;;;;;;24.02;18.08;;;;;;;;;;5109938;27;20032;-80
2022/08/08 05:36:26;;;;;;;25.70;18.48;;;;;;;;;;5077713;28;20028;-79
2022/08/08 05:38:52;;;;;;;20.63;18.35;;;;;;;;;;5122833;27;20062;-79
2022/08/08 05:41:21;;;;;;;22.02;16.13;;;;;;;;;;5089333;28;20035;-81
2022/08/08 05:43:47;;;;;;;23.20;17.10;;;;;;;;;;5090965;28;20471;-77
2022/08/08 05:46:14;;;;;;;23.83;17.58;;;;;;;;;;5124588;27;20020;-77
2022/08/08 05:48:40;;;;;;;18.40;16.60;;;;;;;;;;5092137;28;20024;-81
2022/08/08 05:51:07;;;;;;;27.50;18.65;;;;;;;;;;5091885;28;20016;-79
2022/08/08 05:53:33;;;;;;;19.83;17.48;;;;;;;;;;5090396;28;20043;-79
2022/08/08 05:56:00;;;;;;;20.48;16.58;;;;;;;;;;5091895;28;20020;-78
2022/08/08 05:58:30;;;;;;;22.00;15.98;;;;;;;;;;5090120;28;20016;-78
2022/08/08 06:00:57;;;;;;;18.42;16.52;;;;;;;;;;5080953;28;20025;-77
2022/08/08 06:03:24;;;;;;;20.10;16.50;;;;;;;;;;5088273;28;20107;-79
2022/08/08 06:05:51;;;;;;;24.25;17.45;;;;;;;;;;5128685;27;20023;-80
2022/08/08 06:08:28;;;;;;;21.10;17.17;;;;;;;;;;5076056;28;20119;-79
2022/08/08 06:10:55;;;;;;;23.38;18.50;;;;;;;;;;5091818;28;20027;-80
2022/08/08 06:13:22;;;;;;;24.13;18.80;;;;;;;;;;5090566;28;20471;-79
2022/08/08 06:15:49;;;;;;;25.85;18.75;;;;;;;;;;5090891;28;20543;-79
2022/08/08 06:18:16;;;;;;;20.08;16.77;;;;;;;;;;5124722;27;20024;-79
2022/08/08 06:20:42;;;;;;;18.60;16.60;;;;;;;;;;5090282;28;20036;-79
2022/08/08 06:23:08;;;;;;;21.05;15.77;;;;;;;;;;5090527;28;20020;-81
2022/08/08 06:25:36;;;;;;;21.33;16.70;;;;;;;;;;5091976;28;20024;-82
2022/08/08 06:28:06;;;;;;;20.25;18.25;;;;;;;;;;5091440;28;20127;-81
2022/08/08 06:30:32;;;;;;;21.50;16.13;;;;;;;;;;5090143;28;20027;-83
2022/08/08 06:32:59;;;;;;;20.80;13.32;;;;;;;;;;5090487;28;20027;-80
2022/08/08 06:35:25;;;;;;;18.60;16.35;;;;;;;;;;5077171;28;20167;-82
2022/08/08 06:37:52;;;;;;;19.60;17.48;;;;;;;;;;5085097;28;20025;-81
2022/08/08 06:40:19;;;;;;;18.50;14.02;;;;;;;;;;5116884;27;20020;-80
2022/08/08 06:43:14;;;;;;;21.45;16.33;;;;;;;;;;5091397;28;20070;-80
2022/08/08 06:45:41;;;;;;;18.38;15.70;;;;;;;;;;5077589;28;20035;-80
2022/08/08 06:48:07;;;;;;;15.52;14.02;;;;;;;;;;5092814;28;20052;-80
2022/08/08 06:50:33;;;;;;;14.85;12.00;;;;;;;;;;5124514;28;20031;-81
2022/08/08 06:53:03;;;;;;;17.27;14.55;;;;;;;;;;5090945;28;20076;-81
2022/08/08 06:55:30;;;;;;;15.75;13.32;;;;;;;;;;5091738;28;20046;-82
2022/08/08 06:57:56;;;;;;;12.80;11.50;;;;;;;;;;5090457;28;20463;-81
2022/08/08 07:00:22;;;;;;;13.05;11.75;;;;;;;;;;5091288;28;20099;-80
2022/08/08 07:02:52;;;;;;;15.88;13.02;;;;;;;;;;5091089;28;20345;-80
2022/08/08 07:05:21;;;;;;;15.48;13.10;;;;;;;;;;5091007;28;20047;-80
2022/08/08 07:07:53;;;;;;;15.73;13.52;;;;;;;;;;5091859;28;20052;-78
2022/08/08 07:10:21;;;;;;;17.55;15.48;;;;;;;;;;5076730;28;20567;-79
2022/08/08 07:12:51;;;;;;;16.75;14.13;;;;;;;;;;5092603;28;20056;-80
2022/08/08 07:15:18;;;;;;;17.25;13.10;;;;;;;;;;5125922;27;20036;-83
2022/08/08 07:17:48;;;;;;;13.50;12.15;;;;;;;;;;5124423;28;20156;-82
2022/08/08 07:20:19;;;;;;;14.35;12.85;;;;;;;;;;5123909;28;20069;-83
2022/08/08 07:22:57;;;;;;;13.82;12.00;;;;;;;;;;5091128;28;20067;-83
2022/08/08 07:25:24;;;;;;;13.63;12.20;;;;;;;;;;5089948;28;20024;-83
2022/08/08 07:27:54;;;;;;;19.20;13.77;;;;;;;;;;5126232;27;20387;-83
2022/08/08 07:30:20;;;;;;;12.05;10.85;;;;;;;;;;5091136;28;20048;-83
2022/08/08 07:32:48;;;;;;;16.48;11.98;;;;;;;;;;5134803;27;20019;-82
2022/08/08 07:35:14;;;;;;;17.00;12.00;;;;;;;;;;5090950;28;20052;-83
2022/08/08 07:37:42;;;;;;;16.33;12.30;;;;;;;;;;5123879;27;20020;-84
2022/08/08 07:40:09;;;;;;;14.57;11.00;;;;;;;;;;5092298;28;20020;-84
2022/08/08 07:42:37;;;;;;;14.75;10.50;;;;;;;;;;5127744;27;20020;-84
2022/08/08 07:45:03;;;;;;;13.50;10.93;;;;;;;;;;5120630;27;20024;-83
2022/08/08 07:47:30;;;;;;;14.30;10.73;;;;;;;;;;5120323;27;20020;-84
2022/08/08 07:49:56;;;;;;;12.70;9.65;;;;;;;;;;5094618;28;20613;-83
2022/08/08 07:52:22;;;;;;;15.65;9.88;;;;;;;;;;5118046;27;20161;-80
2022/08/08 07:55:00;;;;;;;11.85;8.52;;;;;;;;;;5123291;27;20047;-82
2022/08/08 07:57:34;;;;;;;12.07;9.07;;;;;;;;;;5084880;28;20020;-85
2022/08/08 08:00:12;;;;;;;13.05;9.63;;;;;;;;;;5109598;27;20223;-82
2022/08/08 08:02:39;;;;;;;10.90;9.68;;;;;;;;;;5127450;27;20028;-83
2022/08/08 08:05:11;;;;;;;11.63;10.45;;;;;;;;;;5127025;27;20024;-82
2022/08/08 08:07:39;;;;;;;12.98;10.00;;;;;;;;;;5094090;28;20016;-82
2022/08/08 08:10:07;;;;;;;15.23;9.18;;;;;;;;;;5093067;28;20028;-82
2022/08/08 08:12:34;;;;;;;11.60;8.90;;;;;;;;;;5092952;28;20024;-82
2022/08/08 08:15:05;;;;;;;11.68;8.85;;;;;;;;;;5092567;28;20032;-82
2022/08/08 08:17:32;;;;;;;13.43;9.48;;;;;;;;;;5094392;28;20021;-81
2022/08/08 08:19:59;;;;;;;10.15;8.43;;;;;;;;;;5093809;28;20463;-80
2022/08/08 08:22:25;;;;;;;11.40;8.43;;;;;;;;;;5130815;27;20028;-81
2022/08/08 08:24:51;;;;;;;10.52;7.88;;;;;;;;;;5093877;28;20020;-81
2022/08/08 08:27:18;;;;;;;10.48;7.95;;;;;;;;;;5094238;28;20055;-81
2022/08/08 08:29:44;;;;;;;13.18;9.30;;;;;;;;;;5125819;27;20653;-79
2022/08/08 08:32:11;;;;;;;9.80;7.13;;;;;;;;;;5093123;28;20027;-79
2022/08/08 08:34:37;;;;;;;8.77;7.45;;;;;;;;;;5091438;28;20114;-80
2022/08/08 08:37:03;;;;;;;13.77;7.80;;;;;;;;;;5125628;27;20106;-79
2022/08/08 08:39:30;;;;;;;11.70;7.43;;;;;;;;;;5092480;28;20024;-77
2022/08/08 08:41:57;;;;;;;11.43;7.80;;;;;;;;;;5125453;27;20387;-78
2022/08/08 08:44:24;;;;;;;9.77;8.02;;;;;;;;;;5092149;28;20512;-77
2022/08/08 08:46:51;;;;;;;10.93;7.80;;;;;;;;;;5091223;28;20420;-79
2022/08/08 08:49:17;;;;;;;8.80;7.20;;;;;;;;;;5079413;28;20048;-79
2022/08/08 08:51:44;;;;;;;10.30;7.95;;;;;;;;;;5108207;27;20094;-79
2022/08/08 08:54:11;;;;;;;8.27;6.53;;;;;;;;;;5092401;28;20032;-78
2022/08/08 08:56:38;;;;;;;8.50;6.53;;;;;;;;;;5091923;28;20414;-76
2022/08/08 08:59:04;;;;;;;10.07;6.75;;;;;;;;;;5091251;28;20048;-78
2022/08/08 09:01:32;;;;;;;9.98;7.30;;;;;;;;;;5125050;27;20110;-78
2022/08/08 09:04:07;;;;;;;20.17;6.72;;;;;;;;;;5084778;28;20074;-77
2022/08/08 09:06:37;;;;;;;10.73;8.10;;;;;;;;;;5119431;27;20065;-78
2022/08/08 09:09:13;;;;;;;14.18;7.00;;;;;;;;;;5092384;28;20016;-79
2022/08/08 09:11:40;;;;;;;7.78;6.72;;;;;;;;;;5092464;28;20172;-78
2022/08/08 09:14:08;;;;;;;13.20;7.07;;;;;;;;;;5092302;28;20028;-78
2022/08/08 09:16:34;;;;;;;9.48;6.80;;;;;;;;;;5125335;27;20095;-78
2022/08/08 09:19:01;;;;;;;8.32;6.38;;;;;;;;;;5125061;27;20115;-77
2022/08/08 09:21:28;;;;;;;9.75;6.45;;;;;;;;;;5092114;28;20123;-77
2022/08/08 09:23:54;;;;;;;7.75;6.65;;;;;;;;;;5092224;28;20020;-79
2022/08/08 09:26:32;;;;;;;8.45;6.68;;;;;;;;;;5092232;28;20104;-79
2022/08/08 09:29:00;;;;;;;8.82;7.95;;;;;;;;;;5092609;28;20444;-80
2022/08/08 09:31:38;;;;;;;7.22;6.53;;;;;;;;;;5100042;28;20015;-79
2022/08/08 09:34:05;;;;;;;8.85;7.13;;;;;;;;;;5093167;28;20364;-80
2022/08/08 09:36:34;;;;;;;8.32;7.00;;;;;;;;;;5080683;28;20467;-79
2022/08/08 09:39:03;;;;;;;10.38;7.07;;;;;;;;;;5087262;28;20031;-80
2022/08/08 09:41:39;;;;;;;10.10;8.25;;;;;;;;;;5071081;28;20496;-79
2022/08/08 09:44:19;;;;;;;8.63;7.75;;;;;;;;;;5085054;28;20032;-79
2022/08/08 09:46:47;;;;;;;10.07;7.43;;;;;;;;;;5078475;28;20104;-79
2022/08/08 09:49:16;;;;;;;8.43;7.22;;;;;;;;;;5124113;27;20070;-79
2022/08/08 09:51:42;;;;;;;8.25;7.40;;;;;;;;;;5090932;28;20055;-77
2022/08/08 09:54:09;;;;;;;11.93;7.78;;;;;;;;;;5090629;28;20024;-77
2022/08/08 09:56:36;;;;;;;7.97;7.15;;;;;;;;;;5091054;28;20074;-78
2022/08/08 09:59:05;;;;;;;11.13;7.63;;;;;;;;;;5089720;28;20020;-76
2022/08/08 10:01:32;;;;;;;10.70;7.47;;;;;;;;;;5089690;28;20024;-78
2022/08/08 10:03:59;;;;;;;9.63;7.47;;;;;;;;;;5091243;28;20055;-79
2022/08/08 10:06:25;;;;;;;13.13;8.25;;;;;;;;;;5123758;27;20070;-79
2022/08/08 10:08:52;;;;;;;10.20;7.50;;;;;;;;;;5123504;27;20475;-77
2022/08/08 10:11:19;;;;;;;8.52;7.68;;;;;;;;;;5089495;28;20435;-79
2022/08/08 10:13:55;;;;;;;13.60;8.52;;;;;;;;;;5090560;28;20116;-75
2022/08/08 10:16:21;;;;;;;14.32;8.77;;;;;;;;;;5090696;28;20036;-79
2022/08/08 10:18:47;;;;;;;14.48;8.23;;;;;;;;;;5089163;28;20019;-79
2022/08/08 10:21:16;;;;;;;10.35;8.25;;;;;;;;;;5123269;27;20047;-80
2022/08/08 10:23:42;;;;;;;8.85;7.60;;;;;;;;;;5075792;28;20515;-78
2022/08/08 10:26:09;;;;;;;8.43;7.53;;;;;;;;;;5111164;27;20023;-78
2022/08/08 10:28:36;;;;;;;9.73;7.63;;;;;;;;;;5089846;28;20020;-78
2022/08/08 10:33:52;;;;;;;11.93;8.80;;;;;;;;;;5095103;28;20082;-78
2022/08/08 10:36:23;;;;;;;12.93;11.60;;;;;;;;;;5088800;28;20020;-78
2022/08/08 10:38:50;;;;;;;16.50;11.93;;;;;;;;;;5093351;28;20051;-81
2022/08/08 10:41:17;;;;;;;22.95;13.80;;;;;;;;;;5123470;27;20035;-78
2022/08/08 10:43:43;;;;;;;14.07;8.73;;;;;;;;;;5090084;28;20020;-77
2022/08/08 10:46:24;;;;;;;10.88;8.75;;;;;;;;;;5089479;28;20392;-78
2022/08/08 10:48:55;;;;;;;11.32;10.15;;;;;;;;;;5090280;28;20017;-77
2022/08/08 10:51:21;;;;;;;12.05;10.48;;;;;;;;;;5090210;28;20073;-78
2022/08/08 10:53:49;;;;;;;10.65;8.18;;;;;;;;;;5089973;28;20103;-78
2022/08/08 10:56:15;;;;;;;12.60;10.90;;;;;;;;;;5090165;28;21331;-79
2022/08/08 10:58:42;;;;;;;7.28;6.07;;;;;;;;;;5091788;28;20035;-77
2022/08/08 11:01:08;;;;;;;9.23;8.27;;;;;;;;;;5076964;28;20444;-78
2022/08/08 11:03:41;;;;;;;9.07;6.57;;;;;;;;;;5088738;28;20047;-78
2022/08/08 11:06:08;;;;;;;12.68;8.35;;;;;;;;;;5111337;27;20028;-79
2022/08/08 11:08:35;;;;;;;11.00;7.43;;;;;;;;;;5087333;28;20023;-78
2022/08/08 11:11:08;;;;;;;8.88;6.57;;;;;;;;;;5089788;28;20027;-75
2022/08/08 11:13:41;;;;;;;8.98;7.53;;;;;;;;;;5090925;28;20424;-76
2022/08/08 11:16:08;;;;;;;7.32;6.15;;;;;;;;;;5092849;28;20053;-76
2022/08/08 11:18:34;;;;;;;7.63;6.78;;;;;;;;;;5093852;28;20020;-77
2022/08/08 11:21:01;;;;;;;8.40;7.57;;;;;;;;;;5086193;28;20080;-76
2022/08/08 11:23:32;;;;;;;14.38;8.55;;;;;;;;;;5120539;27;20021;-77
2022/08/08 11:25:59;;;;;;;9.57;8.57;;;;;;;;;;5072408;28;20016;-77
2022/08/08 11:28:26;;;;;;;7.43;6.55;;;;;;;;;;5085266;28;20030;-76
2022/08/08 11:30:54;;;;;;;8.63;6.65;;;;;;;;;;5095418;28;20012;-76
2022/08/08 11:33:23;;;;;;;11.35;6.55;;;;;;;;;;5101251;28;20119;-78
2022/08/08 11:35:50;;;;;;;11.43;6.07;;;;;;;;;;5093272;28;20032;-78
2022/08/08 11:38:16;;;;;;;10.18;6.97;;;;;;;;;;5094019;28;20017;-76
2022/08/08 11:40:42;;;;;;;9.40;6.35;;;;;;;;;;5093209;28;20027;-78
2022/08/08 11:43:09;;;;;;;15.85;14.13;;;;;;;;;;5093574;28;20528;-77
2022/08/08 11:45:36;;;;;;;8.98;6.65;;;;;;;;;;5126593;27;20028;-78
2022/08/08 11:48:02;;;;;;;8.68;5.50;;;;;;;;;;5126238;27;20455;-75
2022/08/08 11:50:29;;;;;;;14.40;12.30;;;;;;;;;;5126440;27;20035;-77
2022/08/08 11:52:56;;;;;;;11.32;9.00;;;;;;;;;;5126105;27;20155;-75
2022/08/08 11:55:26;;;;;;;15.10;8.90;;;;;;;;;;5092904;28;20091;-75
2022/08/08 11:58:21;;;;;;;12.73;7.55;;;;;;;;;;5093734;28;20024;-74
2022/08/08 12:00:47;;;;;;;10.93;9.63;;;;;;;;;;5052881;28;20047;-76
2022/08/08 12:03:21;;;;;;;15.48;11.40;;;;;;;;;;5125923;27;20072;-78
2022/08/08 12:05:48;;;;;;;13.90;10.85;;;;;;;;;;5092007;28;20454;-77
2022/08/08 12:08:14;;;;;;;6.50;5.53;;;;;;;;;;5091789;28;20024;-76
2022/08/08 12:10:51;;;;;;;8.82;5.53;;;;;;;;;;5087309;28;20021;-77
2022/08/08 12:13:24;;;;;;;11.73;9.23;;;;;;;;;;5109137;28;20119;-75
2022/08/08 12:15:50;;;;;;;8.35;5.63;;;;;;;;;;5092842;28;20027;-75
2022/08/08 12:18:16;;;;;;;17.90;14.48;;;;;;;;;;5126781;27;20460;-77
2022/08/08 12:20:42;;;;;;;9.02;6.07;;;;;;;;;;5090457;28;20036;-75
2022/08/08 12:23:09;;;;;;;7.47;6.50;;;;;;;;;;5083327;28;20016;-76
2022/08/08 12:25:35;;;;;;;12.23;6.38;;;;;;;;;;5091097;28;20824;-77
2022/08/08 12:28:12;;;;;;;17.52;15.48;;;;;;;;;;5092983;28;20445;-74
2022/08/08 12:30:38;;;;;;;10.32;9.20;;;;;;;;;;5081922;28;20124;-78
2022/08/08 12:33:15;;;;;;;7.20;5.63;;;;;;;;;;5125653;27;20402;-76
2022/08/08 12:35:42;;;;;;;6.00;5.07;;;;;;;;;;5092431;28;20123;-78
2022/08/08 12:38:08;;;;;;;14.50;12.38;;;;;;;;;;5118330;27;20016;-77
2022/08/08 12:40:38;;;;;;;5.70;4.85;;;;;;;;;;5085182;28;20024;-79
2022/08/08 12:43:04;;;;;;;7.68;3.92;;;;;;;;;;5092373;28;20020;-75
2022/08/08 12:45:35;;;;;;;9.68;4.95;;;;;;;;;;5125306;27;20107;-75
2022/08/08 12:48:02;;;;;;;6.60;4.93;;;;;;;;;;5092315;28;20032;-76
2022/08/08 12:50:39;;;;;;;17.60;13.52;;;;;;;;;;5125394;27;20464;-77
2022/08/08 12:53:16;;;;;;;15.55;12.90;;;;;;;;;;5123054;27;20073;-75
2022/08/08 12:56:11;;;;;;;7.97;6.63;;;;;;;;;;5085592;28;20031;-75
2022/08/08 12:58:47;;;;;;;7.78;6.97;;;;;;;;;;5087235;28;20163;-77
2022/08/08 13:01:13;;;;;;;12.27;10.90;;;;;;;;;;5092160;28;20028;-78
2022/08/08 13:03:46;;;;;;;46.50;42.30;;;;;;;;;;5092183;28;20103;-78
2022/08/08 13:06:14;;;;;;;10.32;6.93;;;;;;;;;;5124629;27;20034;-77
2022/08/08 13:08:44;;;;;;;20.75;6.68;;;;;;;;;;5090337;28;20016;-77
2022/08/08 13:11:18;;;;;;;6.75;6.10;;;;;;;;;;5090691;28;20028;-74
2022/08/08 13:13:49;;;;;;;14.23;12.52;;;;;;;;;;5090577;28;20042;-77
2022/08/08 13:16:16;;;;;;;18.17;8.80;;;;;;;;;;5091776;28;20035;-77
2022/08/08 13:18:45;;;;;;;10.35;6.57;;;;;;;;;;5124433;27;20387;-77
2022/08/08 13:21:15;;;;;;;11.05;7.22;;;;;;;;;;5091663;28;20113;-77
2022/08/08 13:23:41;;;;;;;16.75;15.07;;;;;;;;;;5124346;27;20024;-78
2022/08/08 13:26:08;;;;;;;11.27;7.03;;;;;;;;;;5091781;28;20024;-75
2022/08/08 13:28:34;;;;;;;14.32;5.72;;;;;;;;;;5091727;28;20016;-78
2022/08/08 13:31:04;;;;;;;9.48;6.45;;;;;;;;;;5090536;28;20028;-78
2022/08/08 13:33:30;;;;;;;15.68;12.85;;;;;;;;;;5124355;27;20032;-77
2022/08/08 13:35:57;;;;;;;10.55;6.97;;;;;;;;;;5076936;28;20055;-77
2022/08/08 13:38:23;;;;;;;9.88;6.97;;;;;;;;;;5090058;28;20551;-74
2022/08/08 13:40:49;;;;;;;15.23;8.88;;;;;;;;;;5089939;28;20458;-76
2022/08/08 13:43:16;;;;;;;14.00;8.02;;;;;;;;;;5124419;27;20054;-77
2022/08/08 13:45:42;;;;;;;8.77;6.50;;;;;;;;;;5091629;28;20023;-76
2022/08/08 13:48:12;;;;;;;11.90;8.82;;;;;;;;;;5091028;28;20415;-77
2022/08/08 13:50:44;;;;;;;18.38;8.50;;;;;;;;;;5091163;28;20489;-76
2022/08/08 13:53:10;;;;;;;8.65;7.22;;;;;;;;;;5090933;28;20406;-77
2022/08/08 13:55:37;;;;;;;10.23;7.05;;;;;;;;;;5123463;27;20554;-77
2022/08/08 13:58:03;;;;;;;10.77;7.25;;;;;;;;;;5090304;28;20023;-78
2022/08/08 14:00:37;;;;;;;11.38;7.13;;;;;;;;;;5103124;28;20051;-76
2022/08/08 14:03:03;;;;;;;16.60;6.82;;;;;;;;;;5087889;28;20023;-75
2022/08/08 14:05:32;;;;;;;18.55;7.90;;;;;;;;;;5081032;28;20025;-78
2022/08/08 14:07:58;;;;;;;14.82;8.88;;;;;;;;;;5091144;28;20493;-79
2022/08/08 14:10:24;;;;;;;11.65;9.00;;;;;;;;;;5110442;27;20061;-77
2022/08/08 14:12:51;;;;;;;10.95;7.43;;;;;;;;;;5122486;27;20482;-78
2022/08/08 14:15:23;;;;;;;9.93;8.77;;;;;;;;;;5123102;27;20583;-78
2022/08/08 14:17:49;;;;;;;;;;;;;;;;;;5120957;27;20485;-80
2022/08/08 14:20:16;;;;;;;8.32;6.65;;;;;;;;;;5106931;28;19943;-80
2022/08/08 14:22:42;;;;;;;10.50;7.30;;;;;;;;;;5118675;27;20032;-81
2022/08/08 14:25:09;;;;;;;8.73;6.03;;;;;;;;;;5091657;28;20024;-82
2022/08/08 14:27:40;;;;;;;11.38;7.32;;;;;;;;;;5126462;27;20426;-85
2022/08/08 14:30:10;;;;;;;9.65;6.85;;;;;;;;;;5091628;28;20016;-86
2022/08/08 14:32:36;;;;;;;9.20;6.35;;;;;;;;;;5125174;27;20027;-83
2022/08/08 14:35:05;;;;;;;12.57;6.18;;;;;;;;;;5124505;27;20039;-83
2022/08/08 14:37:38;;;;;;;8.52;5.43;;;;;;;;;;5090476;28;20072;-85
2022/08/08 14:40:04;;;;;;;10.93;6.78;;;;;;;;;;5089837;28;20062;-80
2022/08/08 14:42:33;;;;;;;8.60;6.15;;;;;;;;;;5090666;28;20023;-84
2022/08/08 14:45:10;;;;;;;11.30;6.18;;;;;;;;;;5124630;27;20055;-85
2022/08/08 14:47:47;;;;;;;9.23;6.97;;;;;;;;;;5124033;27;20665;-86
2022/08/08 14:50:14;;;;;;;8.27;5.85;;;;;;;;;;5110321;28;20434;-84